Time;durP1;ratioP1;P1;durP2;ratioP2;P2;SDS_P1;SDS_P2;PMS_P1;PMS_P2;Temp;Humidity;BMP_temperature;BMP_pressure;BME280_temperature;BME280_humidity;BME280_pressure;Samples;Min_cycle;Max_cycle;Signal;HPM_P1;HPM_P2
2022/06/15 00:01:57;;;;;;;19.75;6.20;;;;;;;31.62;66.98;97197.88;4855152;29;20121;-67
2022/06/15 00:04:46;;;;;;;24.65;6.40;;;;;;;31.53;63.45;97203.44;4853840;29;20075;-68
2022/06/15 00:07:28;;;;;;;31.75;6.28;;;;;;;31.51;64.66;97200.19;4853406;29;20068;-66
2022/06/15 00:10:17;;;;;;;28.90;6.90;;;;;;;31.47;63.51;97201.63;4853890;29;20049;-67
2022/06/15 00:13:06;;;;;;;19.92;6.72;;;;;;;31.44;65.98;97199.41;4854706;29;20517;-67
2022/06/15 00:15:55;;;;;;;26.50;6.25;;;;;;;31.43;67.64;97203.09;4854156;29;20219;-67
2022/06/15 00:18:46;;;;;;;17.52;6.25;;;;;;;31.39;65.88;97199.22;4853654;29;20057;-67
2022/06/15 00:21:28;;;;;;;25.65;7.38;;;;;;;31.40;68.42;97206.19;4853485;29;20140;-67
2022/06/15 00:24:18;;;;;;;22.52;6.22;;;;;;;31.38;69.37;97202.91;4851941;29;20049;-67
2022/06/15 00:27:07;;;;;;;29.13;6.15;;;;;;;31.31;66.92;97204.81;4853967;29;20061;-68
2022/06/15 00:29:50;;;;;;;22.45;6.55;;;;;;;31.33;64.45;97210.75;4853183;29;20060;-68
2022/06/15 00:32:45;;;;;;;20.05;5.35;;;;;;;31.34;65.16;97206.22;4851381;29;20063;-67
2022/06/15 00:35:21;;;;;;;23.38;6.43;;;;;;;31.36;72.49;97205.00;4853849;29;20073;-66
2022/06/15 00:38:09;;;;;;;27.42;6.90;;;;;;;31.34;67.76;97206.22;4854301;29;20057;-66
2022/06/15 00:40:51;;;;;;;33.25;6.85;;;;;;;31.35;66.96;97213.19;4856520;29;20045;-67
2022/06/15 00:43:45;;;;;;;30.88;6.65;;;;;;;31.38;68.28;97218.06;4853428;29;20117;-67
2022/06/15 00:46:47;;;;;;;20.27;5.90;;;;;;;31.45;68.20;97219.66;4851694;29;20061;-67
2022/06/15 00:50:07;;;;;;;31.92;6.03;;;;;;;31.47;63.75;97222.94;4853206;29;20087;-67
2022/06/15 00:53:07;;;;;;;24.30;5.80;;;;;;;31.54;64.92;97223.72;4867063;29;20053;-66
2022/06/15 00:55:56;;;;;;;25.60;6.60;;;;;;;31.61;64.53;97222.88;4867327;29;20053;-67
2022/06/15 00:58:39;;;;;;;25.33;6.15;;;;;;;31.65;64.91;97235.56;4852956;29;20056;-67
2022/06/15 01:01:35;;;;;;;25.67;6.28;;;;;;;31.70;66.18;97227.75;4851410;29;20125;-67
2022/06/15 01:04:26;;;;;;;33.65;7.07;;;;;;;31.70;66.00;97233.06;4850934;29;20081;-66
2022/06/15 01:07:39;;;;;;;21.55;6.72;;;;;;;31.75;64.81;97243.91;4852694;29;20060;-67
2022/06/15 01:10:37;;;;;;;26.95;5.88;;;;;;;31.81;65.67;97237.72;4853269;29;20049;-66
2022/06/15 01:14:04;;;;;;;28.33;6.28;;;;;;;31.91;66.52;97246.06;4859574;29;20073;-67
2022/06/15 01:17:01;;;;;;;21.48;6.03;;;;;;;31.97;67.15;97248.88;4852036;29;20062;-66
2022/06/15 01:20:16;;;;;;;30.40;6.60;;;;;;;32.00;65.50;97249.28;4852161;29;20041;-67
2022/06/15 01:23:35;;;;;;;36.25;6.78;;;;;;;32.03;63.06;97259.47;4852887;29;20057;-66
2022/06/15 01:26:30;;;;;;;27.95;5.90;;;;;;;32.12;64.09;97258.19;4852059;29;20755;-67
2022/06/15 01:30:07;;;;;;;27.70;6.10;;;;;;;32.18;64.31;97252.00;4851027;29;20081;-67
2022/06/15 01:33:10;;;;;;;31.15;5.35;;;;;;;32.26;60.94;97259.72;4851292;29;20046;-68
2022/06/15 01:36:07;;;;;;;24.70;6.03;;;;;;;32.38;61.44;97261.69;4852706;29;20358;-67
2022/06/15 01:39:12;;;;;;;22.45;5.25;;;;;;;32.48;60.37;97259.34;4850620;29;20150;-67
2022/06/15 01:42:10;;;;;;;31.58;6.10;;;;;;;32.62;59.19;97271.53;4853040;29;20054;-67
2022/06/15 01:45:12;;;;;;;22.05;5.55;;;;;;;32.77;61.90;97273.88;4835894;29;20053;-67
2022/06/15 01:48:07;;;;;;;24.52;5.80;;;;;;;32.92;59.89;97275.13;4847130;29;20046;-67
2022/06/15 01:51:02;;;;;;;18.10;5.53;;;;;;;33.18;56.40;97278.53;4853068;29;20154;-68
2022/06/15 01:53:52;;;;;;;30.48;6.13;;;;;;;33.54;58.20;97280.34;4850959;29;20081;-67
2022/06/15 01:56:49;;;;;;;25.40;5.65;;;;;;;33.69;56.14;97281.59;4851489;29;20152;-68
2022/06/15 01:59:45;;;;;;;21.55;5.30;;;;;;;34.04;56.50;97283.59;4848330;29;20054;-68
2022/06/15 02:02:39;;;;;;;29.25;5.32;;;;;;;34.20;54.32;97293.63;4845156;29;20065;-68
2022/06/15 02:05:46;;;;;;;25.77;5.18;;;;;;;34.39;53.45;97292.53;4851040;29;20061;-68
2022/06/15 02:08:59;;;;;;;25.27;6.57;;;;;;;34.70;51.85;97302.06;4852552;29;20045;-68
2022/06/15 02:11:51;;;;;;;23.90;5.40;;;;;;;34.81;53.55;97295.09;4850710;29;20046;-67
2022/06/15 02:14:37;;;;;;;;;;;;;;;35.27;52.22;97302.28;4853560;29;20083;-68
2022/06/15 02:17:37;;;;;;;27.67;6.45;;;;;;;35.47;51.63;97309.91;4849195;29;19934;-66
2022/06/15 02:20:24;;;;;;;;;;;;;;;35.58;50.18;97317.94;4849036;29;20145;-67
2022/06/15 02:23:15;;;;;;;20.88;4.60;;;;;;;35.66;50.75;97314.88;4859402;29;19992;-68
2022/06/15 02:25:58;;;;;;;27.45;4.78;;;;;;;35.56;49.58;97319.19;4873638;29;20056;-69
2022/06/15 02:29:00;;;;;;;19.80;7.65;;;;;;;35.54;49.78;97322.13;4854579;29;20442;-67
2022/06/15 02:31:43;;;;;;;23.00;4.78;;;;;;;35.64;49.73;97316.16;4850431;29;20054;-67
2022/06/15 02:34:32;;;;;;;25.65;4.85;;;;;;;35.86;48.54;97319.81;4851920;29;20377;-68
2022/06/15 02:37:22;;;;;;;33.80;7.95;;;;;;;36.28;47.58;97324.88;4851133;29;20118;-66
2022/06/15 02:40:04;;;;;;;24.45;7.30;;;;;;;36.42;48.05;97323.47;4835687;29;20151;-67
2022/06/15 02:42:54;;;;;;;20.10;6.88;;;;;;;36.67;47.46;97325.78;4852023;29;20154;-68
2022/06/15 02:45:39;;;;;;;23.52;6.63;;;;;;;36.48;46.78;97327.88;4866542;29;20049;-67
2022/06/15 02:48:33;;;;;;;21.45;6.75;;;;;;;36.93;48.76;97324.28;4835408;29;20494;-67
2022/06/15 02:51:24;;;;;;;22.30;6.22;;;;;;;36.51;47.33;97330.06;4865738;29;20672;-68
2022/06/15 02:54:33;;;;;;;28.40;5.47;;;;;;;36.86;48.16;97326.34;4865927;29;20046;-68
2022/06/15 02:57:21;;;;;;;23.25;7.85;;;;;;;36.61;47.62;97332.09;4866236;29;20619;-68
2022/06/15 03:00:12;;;;;;;25.77;6.32;;;;;;;37.14;48.13;97335.09;4865770;29;20049;-67
2022/06/15 03:03:00;;;;;;;27.88;8.60;;;;;;;37.27;47.15;97327.75;4838216;29;20054;-67
2022/06/15 03:05:57;;;;;;;23.10;6.80;;;;;;;37.46;47.10;97339.78;4835784;29;20075;-68
2022/06/15 03:08:35;;;;;;;23.60;7.05;;;;;;;37.33;47.28;97330.22;4863409;29;20473;-67
2022/06/15 03:11:31;;;;;;;31.08;8.27;;;;;;;36.94;46.32;97337.47;4846962;29;20050;-68
2022/06/15 03:14:21;;;;;;;23.13;7.70;;;;;;;36.95;46.63;97331.03;4847696;29;20057;-67
2022/06/15 03:17:15;;;;;;;26.67;8.10;;;;;;;37.34;46.71;97328.38;4843925;29;20049;-68
2022/06/15 03:20:09;;;;;;;17.17;6.47;;;;;;;37.01;46.95;97337.28;4862920;29;20511;-68
2022/06/15 03:23:06;;;;;;;21.30;6.18;;;;;;;37.14;47.16;97328.91;4866433;29;20101;-68
2022/06/15 03:25:48;;;;;;;28.58;6.53;;;;;;;37.43;47.90;97346.50;4845884;29;20060;-68
2022/06/15 03:28:41;;;;;;;28.25;6.78;;;;;;;37.31;47.19;97337.72;4854448;29;20057;-68
2022/06/15 03:31:27;;;;;;;24.88;6.15;;;;;;;37.46;46.73;97348.66;4846651;29;20066;-68
2022/06/15 03:34:15;;;;;;;26.17;7.57;;;;;;;37.46;46.47;97350.53;4856384;29;20049;-68
2022/06/15 03:37:04;;;;;;;27.30;5.78;;;;;;;37.37;46.88;97342.09;4866645;29;20145;-68
2022/06/15 03:39:49;;;;;;;25.10;6.07;;;;;;;37.50;46.09;97351.69;4850325;29;20057;-68
2022/06/15 03:42:42;;;;;;;21.80;6.50;;;;;;;37.24;47.69;97350.53;4850462;29;20069;-67
2022/06/15 03:45:27;;;;;;;31.38;5.53;;;;;;;37.40;47.18;97352.34;4849915;29;20053;-68
2022/06/15 03:48:17;;;;;;;18.80;4.97;;;;;;;37.63;47.20;97353.19;4865381;29;20064;-68
2022/06/15 03:50:59;;;;;;;20.17;5.00;;;;;;;37.65;46.12;97353.75;4866400;29;20413;-67
2022/06/15 03:54:01;;;;;;;26.10;5.50;;;;;;;37.13;46.63;97359.50;4865876;29;20468;-69
2022/06/15 03:56:47;;;;;;;33.13;5.93;;;;;;;37.22;48.25;97351.84;4834717;29;20124;-67
2022/06/15 03:59:41;;;;;;;27.13;5.93;;;;;;;37.67;47.39;97351.63;4865319;29;20137;-69
2022/06/15 04:02:53;;;;;;;24.90;5.80;;;;;;;37.38;46.85;97354.47;4856110;29;20323;-68
2022/06/15 04:06:06;;;;;;;23.15;5.20;;;;;;;37.33;47.13;97346.34;4854011;29;20461;-68
2022/06/15 04:08:58;;;;;;;33.00;5.68;;;;;;;37.89;49.17;97349.72;4868925;29;20060;-66
2022/06/15 04:12:01;;;;;;;32.30;6.10;;;;;;;38.22;47.65;97349.56;4853315;29;20720;-67
2022/06/15 04:14:51;;;;;;;25.83;5.55;;;;;;;37.96;46.66;97347.66;4868697;29;20117;-68
2022/06/15 04:17:48;;;;;;;27.73;5.53;;;;;;;38.09;46.83;97346.44;4868125;29;20060;-68
2022/06/15 04:20:48;;;;;;;23.65;5.32;;;;;;;38.17;46.74;97351.38;4837454;29;20046;-67
2022/06/15 04:23:37;;;;;;;23.33;5.88;;;;;;;38.00;48.09;97345.25;4853258;29;20072;-67
2022/06/15 04:26:20;;;;;;;28.13;6.90;;;;;;;37.85;46.26;97344.03;4868244;29;20171;-68
2022/06/15 04:29:09;;;;;;;25.80;5.43;;;;;;;37.48;46.78;97333.09;4853254;29;21861;-67
2022/06/15 04:32:00;;;;;;;22.98;5.47;;;;;;;37.55;47.14;97343.66;4869131;29;20169;-68
2022/06/15 04:34:42;;;;;;;39.87;7.07;;;;;;;37.85;46.72;97337.84;4853616;29;20048;-68
2022/06/15 04:37:32;;;;;;;26.48;5.82;;;;;;;38.11;46.71;97331.69;4868111;29;20049;-67
2022/06/15 04:40:37;;;;;;;32.50;6.30;;;;;;;38.64;47.82;97325.41;4869007;29;20053;-68
2022/06/15 04:43:19;;;;;;;26.95;5.80;;;;;;;38.79;46.07;97327.41;4854271;29;20065;-67
2022/06/15 04:46:08;;;;;;;24.17;6.30;;;;;;;38.93;47.72;97320.50;4854084;29;20265;-67
2022/06/15 04:48:52;;;;;;;35.20;6.28;;;;;;;38.72;45.02;97316.03;4868742;29;20128;-67
2022/06/15 04:52:00;;;;;;;31.58;6.22;;;;;;;38.80;45.57;97318.25;4852620;29;20053;-66
2022/06/15 04:54:43;;;;;;;28.08;5.95;;;;;;;38.50;46.14;97316.16;4853175;29;20493;-67
2022/06/15 04:57:32;;;;;;;21.55;5.38;;;;;;;38.45;46.41;97315.28;4867652;29;20042;-68
2022/06/15 05:00:18;;;;;;;29.05;6.00;;;;;;;38.58;46.53;97314.88;4823558;29;20064;-69
2022/06/15 05:03:07;;;;;;;26.70;5.90;;;;;;;38.59;45.52;97311.09;4856348;29;20118;-68
2022/06/15 05:05:58;;;;;;;26.20;6.85;;;;;;;38.91;46.66;97305.66;4870140;29;20053;-68
2022/06/15 05:08:47;;;;;;;18.30;5.50;;;;;;;38.97;45.88;97312.72;4854246;29;20060;-68
2022/06/15 05:11:30;;;;;;;33.47;6.70;;;;;;;38.91;47.53;97308.34;4852390;29;20076;-66
2022/06/15 05:14:21;;;;;;;27.08;6.25;;;;;;;38.74;46.82;97305.81;4867686;29;20152;-67
2022/06/15 05:17:18;;;;;;;21.48;5.57;;;;;;;39.40;46.23;97296.25;4867631;29;20065;-68
2022/06/15 05:20:01;;;;;;;25.27;6.20;;;;;;;39.35;45.15;97296.19;4859769;29;20168;-67
2022/06/15 05:22:53;;;;;;;26.00;6.28;;;;;;;39.43;45.52;97291.41;4866951;29;20426;-67
2022/06/15 05:26:08;;;;;;;30.00;5.85;;;;;;;39.02;44.98;97275.84;4860475;29;20045;-68
2022/06/15 05:28:51;;;;;;;25.75;6.32;;;;;;;39.30;44.90;97281.88;4867367;29;20052;-68
2022/06/15 05:31:41;;;;;;;37.75;6.35;;;;;;;39.14;47.11;97277.50;4866829;29;20053;-68
2022/06/15 05:34:25;;;;;;;25.38;5.95;;;;;;;39.53;44.37;97283.31;4867531;29;20049;-67
2022/06/15 05:37:14;;;;;;;21.00;5.65;;;;;;;39.93;45.91;97274.53;4836718;29;20050;-67
2022/06/15 05:40:00;;;;;;;26.92;6.47;;;;;;;39.92;44.50;97273.72;4868345;29;20062;-68
2022/06/15 05:42:50;;;;;;;23.95;6.72;;;;;;;39.67;45.49;97269.06;4867859;29;20060;-68
2022/06/15 05:45:44;;;;;;;25.50;5.63;;;;;;;39.69;44.78;97266.91;4851803;29;20077;-68
2022/06/15 05:48:33;;;;;;;26.75;5.43;;;;;;;39.94;44.62;97268.06;4854009;29;20438;-69
2022/06/15 05:51:15;;;;;;;38.83;6.55;;;;;;;39.74;44.63;97269.66;4852358;29;20080;-68
2022/06/15 05:54:05;;;;;;;28.08;5.75;;;;;;;39.85;44.62;97269.66;4836870;29;20150;-67
2022/06/15 05:56:47;;;;;;;31.23;5.78;;;;;;;39.94;45.00;97271.56;4852053;29;20577;-68
2022/06/15 05:59:36;;;;;;;38.08;5.65;;;;;;;39.99;44.21;97268.88;4855612;29;20045;-68
2022/06/15 06:02:20;;;;;;;29.43;5.87;;;;;;;40.12;43.90;97262.97;4871184;29;20059;-68
2022/06/15 06:05:16;;;;;;;30.55;6.32;;;;;;;40.17;44.92;97271.03;4873193;29;20093;-67
2022/06/15 06:08:05;;;;;;;36.65;6.50;;;;;;;40.11;44.45;97268.63;4871128;29;20053;-68
2022/06/15 06:10:54;;;;;;;37.70;6.03;;;;;;;39.86;42.72;97265.91;4870996;29;20132;-67
2022/06/15 06:13:36;;;;;;;24.35;5.97;;;;;;;40.05;45.28;97264.31;4870765;29;20056;-68
2022/06/15 06:16:31;;;;;;;29.83;5.47;;;;;;;39.90;43.93;97258.91;4870666;29;20121;-69
2022/06/15 06:19:13;;;;;;;29.05;5.57;;;;;;;40.30;46.72;97258.94;4870685;29;20049;-67
2022/06/15 06:22:02;;;;;;;32.03;7.47;;;;;;;40.26;43.13;97259.72;4871035;29;20037;-67
2022/06/15 06:24:44;;;;;;;40.67;5.70;;;;;;;40.42;42.11;97259.44;4870758;29;20502;-67
2022/06/15 06:27:34;;;;;;;29.85;6.10;;;;;;;40.19;43.88;97269.97;4870090;29;20112;-67
2022/06/15 06:30:16;;;;;;;26.95;6.03;;;;;;;40.24;43.91;97254.56;4870439;29;20136;-68
2022/06/15 06:33:05;;;;;;;35.60;5.88;;;;;;;40.46;43.10;97257.03;4870714;29;20068;-68
2022/06/15 06:35:47;;;;;;;18.67;5.00;;;;;;;40.40;44.67;97250.00;4852349;29;20119;-68
2022/06/15 06:38:37;;;;;;;30.38;6.03;;;;;;;40.65;44.42;97257.25;4852195;29;20069;-67
2022/06/15 06:41:28;;;;;;;26.92;6.68;;;;;;;40.40;41.58;97253.50;4851708;29;20656;-68
2022/06/15 06:44:19;;;;;;;21.08;5.57;;;;;;;40.26;40.23;97251.63;4851828;29;20049;-68
2022/06/15 06:47:08;;;;;;;32.15;6.30;;;;;;;40.40;42.09;97256.19;4866187;29;20105;-67
2022/06/15 06:49:51;;;;;;;27.17;6.22;;;;;;;40.41;41.20;97249.72;4833853;29;20366;-67
2022/06/15 06:52:41;;;;;;;19.45;5.05;;;;;;;40.51;40.36;97249.72;4833831;29;20081;-68
2022/06/15 06:55:26;;;;;;;;;;;;;;;40.51;38.21;97247.00;4851364;29;20544;-67
2022/06/15 06:58:15;;;;;;;29.20;5.95;;;;;;;40.63;40.11;97235.13;4852036;29;20191;-67
2022/06/15 07:00:57;;;;;;;33.30;5.67;;;;;;;40.63;40.09;97237.81;4852389;29;20103;-67
2022/06/15 07:03:53;;;;;;;30.75;5.13;;;;;;;40.60;38.93;97235.66;4853872;29;20438;-68
2022/06/15 07:06:49;;;;;;;22.38;5.05;;;;;;;40.76;40.74;97221.06;4851854;29;20145;-67
2022/06/15 07:09:38;;;;;;;21.88;5.65;;;;;;;40.89;40.32;97215.88;4851863;29;20117;-68
2022/06/15 07:12:27;;;;;;;32.00;5.82;;;;;;;40.79;41.36;97210.50;4851160;29;20141;-67
2022/06/15 07:15:12;;;;;;;28.57;5.97;;;;;;;40.88;41.79;97208.03;4850793;29;20109;-68
2022/06/15 07:18:04;;;;;;;24.30;5.18;;;;;;;40.80;40.38;97200.50;4851862;29;20125;-68
2022/06/15 07:20:46;;;;;;;19.98;6.13;;;;;;;40.63;40.11;97197.31;4851059;29;20110;-68
2022/06/15 07:23:35;;;;;;;39.85;5.75;;;;;;;40.79;41.56;97198.91;4853523;29;20053;-68
2022/06/15 07:26:20;;;;;;;34.70;5.55;;;;;;;40.80;43.42;97195.09;4851042;29;20386;-67
2022/06/15 07:29:09;;;;;;;16.02;6.00;;;;;;;40.88;41.90;97200.72;4851421;29;20132;-68
2022/06/15 07:31:56;;;;;;;33.40;5.97;;;;;;;40.80;40.03;97195.09;4851903;29;20794;-68
2022/06/15 07:34:45;;;;;;;35.17;6.00;;;;;;;40.78;40.55;97189.97;4850711;29;20077;-67
2022/06/15 07:37:27;;;;;;;25.07;5.63;;;;;;;40.90;40.61;97190.47;4852138;29;20067;-67
2022/06/15 07:40:36;;;;;;;26.70;5.35;;;;;;;40.82;39.02;97196.44;4855162;29;20049;-68
2022/06/15 07:43:25;;;;;;;25.35;5.32;;;;;;;40.62;35.57;97192.97;4854579;29;20072;-68
2022/06/15 07:46:16;;;;;;;29.35;4.63;;;;;;;40.39;36.35;97186.28;4855007;29;20102;-68
2022/06/15 07:52:11;;;;;;;21.48;6.30;;;;;;;40.80;39.52;97176.97;4853426;29;20065;-68
2022/06/15 07:55:01;;;;;;;23.17;5.65;;;;;;;40.79;39.05;97175.34;4858233;29;20156;-69
2022/06/15 07:57:50;;;;;;;23.15;5.18;;;;;;;40.83;36.62;97172.94;4855238;29;20077;-69
2022/06/15 08:00:34;;;;;;;27.42;6.40;;;;;;;40.85;37.58;97168.06;4855165;29;20392;-68
2022/06/15 08:03:24;;;;;;;31.92;5.40;;;;;;;40.86;38.14;97177.78;4855108;29;20085;-68
2022/06/15 08:06:13;;;;;;;;;;;;;;;40.72;38.38;97171.34;4858753;29;20557;-65
2022/06/15 08:09:09;;;;;;;39.70;7.15;;;;;;;40.78;39.86;97172.97;4856429;29;20043;-66
2022/06/15 08:14:59;;;;;;;34.25;7.13;;;;;;;40.74;37.14;97158.38;4853542;29;20137;-68
2022/06/15 08:17:41;;;;;;;21.27;6.15;;;;;;;40.76;40.28;97154.31;4850552;29;20183;-68
2022/06/15 08:20:37;;;;;;;35.80;6.63;;;;;;;40.64;38.90;97148.38;4854909;29;20060;-68
2022/06/15 08:23:29;;;;;;;27.25;5.40;;;;;;;40.65;36.56;97150.00;4852226;29;20049;-69
2022/06/15 08:26:22;;;;;;;27.13;6.38;;;;;;;40.76;38.24;97142.69;4852719;29;20122;-66
2022/06/15 08:29:09;;;;;;;23.20;5.32;;;;;;;40.70;36.41;97141.13;4853686;29;20037;-66
2022/06/15 08:31:58;;;;;;;17.95;5.25;;;;;;;40.70;38.56;97143.81;4854204;29;20129;-67
2022/06/15 08:34:40;;;;;;;27.92;5.65;;;;;;;40.73;39.61;97127.84;4852619;29;20056;-66
2022/06/15 08:37:29;;;;;;;36.30;6.95;;;;;;;40.74;38.80;97139.47;4866549;29;20057;-67
2022/06/15 08:40:13;;;;;;;27.47;5.97;;;;;;;40.73;38.92;97127.84;4853216;29;20053;-67
2022/06/15 08:43:19;;;;;;;23.33;6.57;;;;;;;40.64;37.65;97132.16;4853000;29;20081;-66
2022/06/15 08:46:07;;;;;;;32.88;6.65;;;;;;;40.70;37.65;97130.31;4853572;29;20054;-67
2022/06/15 08:49:14;;;;;;;25.25;5.88;;;;;;;40.71;35.97;97126.53;4853241;29;20061;-66
2022/06/15 08:52:10;;;;;;;27.55;5.88;;;;;;;40.70;35.66;97114.91;4853997;29;20053;-70
2022/06/15 08:55:08;;;;;;;19.65;4.78;;;;;;;40.58;37.58;97111.66;4852164;29;20057;-67
2022/06/15 08:58:01;;;;;;;20.88;5.13;;;;;;;40.58;34.56;97108.16;4853858;29;20045;-67
2022/06/15 09:00:54;;;;;;;29.20;5.75;;;;;;;40.62;35.78;97106.53;4853346;29;20117;-66
2022/06/15 09:03:57;;;;;;;24.55;5.80;;;;;;;40.63;35.37;97100.06;4855875;29;20056;-68
2022/06/15 09:07:05;;;;;;;31.95;5.72;;;;;;;40.65;36.52;97095.16;4855121;29;20042;-67
2022/06/15 09:10:20;;;;;;;22.83;6.72;;;;;;;40.55;36.01;97079.81;4835398;29;20178;-67
2022/06/15 09:13:43;;;;;;;26.20;5.93;;;;;;;40.55;39.31;97076.31;4834754;29;20071;-67
2022/06/15 09:16:59;;;;;;;21.50;5.05;;;;;;;40.42;33.78;97075.81;4835326;29;20351;-68
2022/06/15 09:20:02;;;;;;;30.52;5.57;;;;;;;40.47;36.68;97062.28;4835447;29;20042;-66
2022/06/15 09:22:57;;;;;;;31.92;7.05;;;;;;;40.50;36.00;97059.03;4832383;29;20049;-67
2022/06/15 09:25:58;;;;;;;25.42;6.10;;;;;;;40.61;36.53;97054.41;4834511;29;20046;-67
2022/06/15 09:28:56;;;;;;;20.55;5.57;;;;;;;40.66;36.64;97042.75;4820645;29;20082;-67
2022/06/15 09:31:41;;;;;;;23.73;5.30;;;;;;;40.64;38.50;97039.50;4829132;29;20091;-67
2022/06/15 09:34:39;;;;;;;22.75;5.35;;;;;;;40.61;35.61;97035.50;4834325;29;20060;-66
2022/06/15 09:37:25;;;;;;;30.10;5.00;;;;;;;40.61;35.26;97030.09;4834549;29;20065;-66
2022/06/15 09:40:15;;;;;;;27.48;5.32;;;;;;;40.72;35.42;97030.84;4833334;29;20050;-67
2022/06/15 09:43:08;;;;;;;41.03;5.63;;;;;;;40.72;33.34;97030.84;4848975;29;20042;-67
2022/06/15 09:46:04;;;;;;;35.67;6.30;;;;;;;40.60;35.33;97022.25;4834737;29;20118;-67
2022/06/15 09:48:55;;;;;;;21.92;5.10;;;;;;;40.50;36.83;97013.13;4833893;29;20077;-67
2022/06/15 09:52:06;;;;;;;35.17;6.47;;;;;;;40.61;38.38;97013.06;4834667;29;20125;-67
2022/06/15 09:55:15;;;;;;;34.65;5.80;;;;;;;40.65;36.68;97006.00;4820163;29;20064;-66
2022/06/15 09:58:14;;;;;;;37.85;5.90;;;;;;;40.66;34.86;97004.94;4820836;29;20061;-66
2022/06/15 10:00:50;;;;;;;36.50;6.05;;;;;;;40.61;36.61;97002.28;4834694;29;20054;-66
2022/06/15 10:03:48;;;;;;;;;;;;;;;40.59;35.61;97001.75;4834965;29;20122;-67
2022/06/15 10:06:30;;;;;;;27.00;5.35;;;;;;;40.55;35.18;96995.28;4834256;29;19932;-67
2022/06/15 10:09:32;;;;;;;27.15;5.25;;;;;;;40.32;38.71;96984.06;4851680;29;20080;-67
2022/06/15 10:15:46;;;;;;;29.08;6.53;;;;;;;40.47;33.90;96991.28;4861483;29;20053;-67
2022/06/15 10:18:52;;;;;;;22.02;4.50;;;;;;;40.43;36.48;96985.63;4854210;29;20056;-67
2022/06/15 10:21:43;;;;;;;24.70;4.47;;;;;;;40.41;35.06;96986.97;4869846;29;20053;-67
2022/06/15 10:24:30;;;;;;;24.95;5.10;;;;;;;40.45;33.96;96988.06;4871207;29;20053;-67
2022/06/15 10:27:31;;;;;;;24.48;5.22;;;;;;;40.41;35.99;96978.88;4872557;29;20067;-67
2022/06/15 10:30:13;;;;;;;27.13;5.15;;;;;;;40.37;35.37;96972.44;4859417;29;20045;-67
2022/06/15 10:33:08;;;;;;;25.77;6.13;;;;;;;40.29;35.95;96973.03;4852798;29;20132;-66
2022/06/15 10:35:58;;;;;;;31.65;8.70;;;;;;;40.35;34.29;96978.09;4850864;29;20049;-68
2022/06/15 10:38:47;;;;;;;24.35;5.40;;;;;;;40.27;36.90;96964.38;4852168;29;20045;-67
2022/06/15 10:41:46;;;;;;;35.93;5.57;;;;;;;40.34;34.96;96967.59;4851861;29;20076;-67
2022/06/15 10:44:36;;;;;;;17.60;4.60;;;;;;;40.21;36.52;96960.88;4852024;29;20117;-67
2022/06/15 10:47:20;;;;;;;;;;;;;;;40.17;35.83;96960.63;4852503;29;20136;-67
2022/06/15 10:50:14;;;;;;;29.52;5.25;;;;;;;40.25;36.00;96961.97;4851505;29;19944;-67
2022/06/15 10:53:23;;;;;;;31.55;5.38;;;;;;;40.18;37.39;96947.94;4851731;29;20124;-67
2022/06/15 11:02:48;;;;;;;42.92;6.65;;;;;;;40.25;35.98;96947.66;4833572;29;20560;-67
2022/06/15 11:05:38;;;;;;;33.25;6.65;;;;;;;40.16;36.61;96940.09;4851301;29;20064;-67
2022/06/15 11:08:30;;;;;;;42.13;5.78;;;;;;;40.14;36.13;96930.69;4851034;29;20061;-68
2022/06/15 11:11:32;;;;;;;32.97;5.40;;;;;;;40.10;35.62;96930.44;4864212;29;20792;-67
2022/06/15 11:15:03;;;;;;;44.67;6.57;;;;;;;40.10;35.65;96926.91;4863094;29;20476;-68
2022/06/15 11:18:07;;;;;;;51.25;5.78;;;;;;;40.13;36.91;96926.38;4869757;29;20049;-66
2022/06/15 11:20:59;;;;;;;37.05;6.72;;;;;;;40.17;35.21;96917.44;4869861;29;20586;-66
2022/06/15 11:24:21;;;;;;;24.80;5.18;;;;;;;40.10;34.80;96910.72;4866968;29;20061;-68
2022/06/15 11:27:35;;;;;;;33.78;5.90;;;;;;;40.12;34.92;96913.97;4868708;29;20053;-67
2022/06/15 11:30:32;;;;;;;47.35;5.60;;;;;;;40.12;34.74;96911.25;4869648;29;20088;-67
2022/06/15 11:33:27;;;;;;;42.15;5.63;;;;;;;40.17;33.57;96909.31;4863399;29;20057;-67
2022/06/15 11:36:40;;;;;;;30.73;4.75;;;;;;;40.09;34.57;96901.00;4851355;29;20441;-67
2022/06/15 11:39:42;;;;;;;35.03;6.53;;;;;;;40.06;34.56;96888.09;4851439;29;20049;-66
2022/06/15 11:42:31;;;;;;;29.65;5.32;;;;;;;40.10;33.45;96889.13;4851218;29;20442;-67
2022/06/15 11:45:15;;;;;;;27.38;5.03;;;;;;;40.01;34.77;96896.19;4851037;29;20420;-67
2022/06/15 11:48:09;;;;;;;33.83;6.00;;;;;;;40.01;33.31;96896.19;4851035;29;20076;-67
2022/06/15 11:51:01;;;;;;;30.08;4.97;;;;;;;39.92;34.76;96889.75;4851470;29;20050;-68
2022/06/15 11:54:27;;;;;;;16.27;4.28;;;;;;;39.83;35.28;96883.34;4851867;29;20132;-67
2022/06/15 11:57:15;;;;;;;34.47;6.60;;;;;;;39.71;35.66;96884.44;4851096;29;20061;-67
2022/06/15 12:00:25;;;;;;;29.48;4.60;;;;;;;39.67;36.79;96875.28;4851094;29;20641;-67
2022/06/15 12:03:38;;;;;;;42.08;6.68;;;;;;;39.73;36.27;96876.06;4858255;29;20431;-67
2022/06/15 12:06:30;;;;;;;33.75;5.03;;;;;;;39.70;35.93;96868.53;4836459;29;20053;-67
2022/06/15 12:09:51;;;;;;;36.85;5.25;;;;;;;39.69;34.36;96875.81;4853925;29;20053;-67
2022/06/15 12:12:58;;;;;;;33.22;6.28;;;;;;;39.66;35.75;96865.59;4851741;29;20057;-68
2022/06/15 12:15:45;;;;;;;41.67;5.57;;;;;;;39.62;35.34;96861.81;4850523;29;20092;-68
2022/06/15 12:18:56;;;;;;;55.17;7.43;;;;;;;39.58;35.78;96858.06;4851419;29;20069;-68
2022/06/15 12:22:18;;;;;;;43.65;5.63;;;;;;;39.54;36.97;96858.88;4851635;29;20151;-68
2022/06/15 12:25:34;;;;;;;38.78;4.88;;;;;;;39.49;36.01;96857.03;4852947;29;20049;-68
2022/06/15 12:28:17;;;;;;;46.40;5.65;;;;;;;39.45;36.79;96861.34;4853475;29;20064;-69
2022/06/15 12:31:20;;;;;;;35.15;5.25;;;;;;;39.43;36.99;96858.13;4853701;29;20049;-68
2022/06/15 12:34:25;;;;;;;52.30;6.85;;;;;;;39.40;36.72;96864.06;4839214;29;20533;-69
2022/06/15 12:37:26;;;;;;;46.90;6.93;;;;;;;39.38;36.67;96860.84;4854172;29;20068;-68
2022/06/15 12:40:32;;;;;;;49.70;7.78;;;;;;;39.31;36.43;96865.69;4852989;29;20152;-68
2022/06/15 12:43:14;;;;;;;41.47;5.28;;;;;;;39.31;36.71;96854.91;4854100;29;20061;-68
2022/06/15 12:46:19;;;;;;;48.70;6.78;;;;;;;39.21;37.66;96854.91;4854384;29;20148;-69
2022/06/15 12:49:56;;;;;;;45.90;7.55;;;;;;;39.16;38.00;96847.66;4854589;29;20680;-69
2022/06/15 12:53:14;;;;;;;35.08;6.65;;;;;;;39.04;39.47;96839.06;4828402;29;20133;-69
2022/06/15 12:56:07;;;;;;;41.75;5.47;;;;;;;38.92;39.55;96833.94;4854233;29;20068;-69
2022/06/15 12:58:52;;;;;;;29.75;5.32;;;;;;;38.87;39.44;96833.16;4854901;29;20060;-69
2022/06/15 13:01:50;;;;;;;33.88;5.32;;;;;;;38.76;39.28;96826.16;4852324;29;20536;-68
2022/06/15 13:04:53;;;;;;;33.72;6.78;;;;;;;38.70;39.31;96833.44;4851234;29;20136;-69
2022/06/15 13:07:43;;;;;;;36.38;5.55;;;;;;;38.56;40.83;96837.72;4853944;29;20057;-68
2022/06/15 13:10:29;;;;;;;;;;;;;;;38.36;41.99;96837.72;4855529;29;20741;-71
2022/06/15 13:13:46;;;;;;;31.55;5.72;;;;;;;38.24;41.53;96846.03;4867297;29;19924;-68
2022/06/15 13:17:04;;;;;;;36.03;7.78;;;;;;;38.07;40.69;96845.50;4839814;29;20057;-68
2022/06/15 13:20:12;;;;;;;37.60;5.10;;;;;;;37.94;41.60;96849.44;4853597;29;20442;-70
2022/06/15 13:22:54;;;;;;;38.40;5.55;;;;;;;38.01;41.82;96865.34;4852768;29;20060;-68
2022/06/15 13:26:02;;;;;;;32.05;5.10;;;;;;;37.84;42.24;96857.47;4853065;29;20081;-68
2022/06/15 13:29:11;;;;;;;38.00;5.50;;;;;;;37.80;41.50;96867.16;4853158;29;20200;-67
2022/06/15 13:32:05;;;;;;;42.78;5.63;;;;;;;37.75;41.05;96869.84;4852982;29;20421;-67
2022/06/15 13:34:54;;;;;;;37.10;5.35;;;;;;;37.74;40.74;96876.28;4852064;29;20553;-66
2022/06/15 13:38:00;;;;;;;43.72;6.65;;;;;;;37.67;41.95;96883.81;4852859;29;20477;-68
2022/06/15 13:41:00;;;;;;;38.88;6.68;;;;;;;37.71;41.01;96885.69;4852846;29;20060;-65
2022/06/15 13:43:49;;;;;;;28.88;5.97;;;;;;;37.66;41.49;96893.75;4866875;29;20120;-67
2022/06/15 13:46:43;;;;;;;27.08;6.00;;;;;;;37.64;40.95;96895.06;4852732;29;20428;-67
2022/06/15 13:49:32;;;;;;;41.88;6.20;;;;;;;37.67;40.46;96892.69;4838511;29;20153;-67